Trine Charlotte — LMRY — position and weather

sailwx.info

Track history (hours):
 
Tides and Currents Weather Stations Pressure Air Temp Water Temp Dewpoint Dewpoint Depression Visibility Wind Speed Wind Dir Waves Ship Positions

Trine Charlotte

Last reported at 2017-May-23 18:31 UTC. Time now 2017-May-23 18:56 UTC.
Position N 68°06' E 013°51'.

Length 66 m; draft 4.4 m.

Type: Wing in ground effect craft. MMSI: 257233000.

Date/timePositionNaut miles runAvg speedWind from/ knotsBaromVisibWave heightAir tempDewpointWater temp
2017-May-23 18:31N 68°06' E 013°51'5 9.4
2017-May-23 17:59N 68°04' E 013°39'4 7.8
2017-May-23 17:30N 68°07' E 013°35'1 1.2
2017-May-23 17:00N 68°07' E 013°33'0 0.0
2017-May-23 16:30N 68°07' E 013°33'0 0.0
2017-May-23 16:00N 68°07' E 013°33'0 0.0
2017-May-23 15:29N 68°07' E 013°33'0 0.0
2017-May-23 15:00N 68°07' E 013°33'0 0.0
2017-May-23 14:31N 68°07' E 013°33'0 0.0
2017-May-23 13:30N 68°07' E 013°33'0 0.0
2017-May-23 13:00N 68°07' E 013°33'0 0.0
2017-May-23 12:30N 68°07' E 013°33'0 0.0
2017-May-23 12:00N 68°07' E 013°33'0 0.0
2017-May-23 11:30N 68°07' E 013°33'0 0.0
2017-May-23 11:00N 68°07' E 013°33'0 0.0
2017-May-23 10:30N 68°07' E 013°33'0 0.0
2017-May-23 10:00N 68°07' E 013°33'0 0.0
2017-May-23 09:30N 68°07' E 013°33'0 0.0
2017-May-23 09:00N 68°07' E 013°33'0 0.0
2017-May-23 08:30N 68°07' E 013°33'0 0.0
2017-May-23 08:00N 68°07' E 013°33'0 0.0
2017-May-23 07:30N 68°07' E 013°33'0 0.0
2017-May-23 07:00N 68°07' E 013°33'0 0.0
2017-May-23 06:30N 68°07' E 013°33'0 0.0
2017-May-23 06:00N 68°07' E 013°33'0 0.0
2017-May-23 05:30N 68°07' E 013°33'0 0.0
2017-May-23 04:59N 68°07' E 013°33'0 0.0
2017-May-23 04:30N 68°07' E 013°33'0 0.0
2017-May-23 04:00N 68°07' E 013°33'1 2.4
2017-May-23 03:30N 68°07' E 013°36'3 6.4
2017-May-23 03:00N 68°04' E 013°40'4 8.5
2017-May-23 02:30N 68°05' E 013°50'4 8.7
2017-May-23 02:00N 68°08' E 013°60'4 8.7
2017-May-23 01:30N 68°10' E 014°09'4 8.5
2017-May-23 01:00N 68°14' E 014°12'4 8.0
2017-May-23 00:30N 68°18' E 014°17'4 7.7
2017-May-23 00:00N 68°22' E 014°18'4 8.2
2017-May-22 23:30N 68°25' E 014°25'4 8.0
2017-May-22 23:00N 68°27' E 014°34'4 8.3
2017-May-22 22:30N 68°28' E 014°45'4 8.3
2017-May-22 22:00N 68°30' E 014°55'4 8.7
2017-May-22 21:29N 68°32' E 015°05'4 8.6
2017-May-22 21:00N 68°35' E 015°13'4 8.1
2017-May-22 20:30N 68°37' E 015°23'4 8.0
2017-May-22 20:00N 68°38' E 015°34'0 0.5
2017-May-22 19:30N 68°38' E 015°34'0 0.0
2017-May-22 19:00N 68°38' E 015°34'0 0.0
2017-May-22 18:30N 68°38' E 015°34'0 0.0
2017-May-22 18:00N 68°38' E 015°34'0 0.0
2017-May-22 17:30N 68°38' E 015°34'0 0.0
2017-May-22 17:00N 68°38' E 015°34'0 0.0
2017-May-22 16:30N 68°38' E 015°34'0 0.0
2017-May-22 15:59N 68°38' E 015°34'0 0.0
2017-May-22 15:30N 68°38' E 015°34'0 0.0
2017-May-22 15:00N 68°38' E 015°34'0 0.0
2017-May-22 14:00N 68°38' E 015°34'0 0.0
2017-May-22 13:30N 68°38' E 015°34'0 0.0
2017-May-22 13:00N 68°38' E 015°34'0 0.0
2017-May-22 12:30N 68°38' E 015°34'0 0.0
2017-May-22 12:00N 68°38' E 015°34'0 0.0
2017-May-22 11:30N 68°38' E 015°34'0 0.0
2017-May-22 11:00N 68°38' E 015°34'0 0.0
2017-May-22 10:30N 68°38' E 015°34'3 6.0
2017-May-22 10:00N 68°39' E 015°27'3 5.5
2017-May-22 09:30N 68°42' E 015°25'0 0.0
2017-May-22 09:00N 68°42' E 015°25'0 0.0
2017-May-22 08:30N 68°42' E 015°25'3 6.6
2017-May-22 08:00N 68°45' E 015°26'4 8.6
2017-May-22 07:30N 68°49' E 015°27'4 8.5
2017-May-22 07:00N 68°53' E 015°33'4 8.3
2017-May-22 06:30N 68°57' E 015°37'4 7.5
2017-May-22 06:00N 68°59' E 015°46'4 8.7
2017-May-22 05:30N 68°58' E 015°58'5 9.2
2017-May-22 05:00N 68°57' E 016°11'4 9.0
2017-May-22 04:30N 68°55' E 016°21'5 9.4
2017-May-22 04:00N 68°51' E 016°31'3 6.8
2017-May-22 03:29N 68°48' E 016°34'1 1.4
2017-May-22 03:00N 68°48' E 016°33'0 0.0
2017-May-22 02:30N 68°48' E 016°33'0 0.0
2017-May-22 02:00N 68°48' E 016°33'0 0.0
2017-May-22 01:30N 68°48' E 016°33'0 0.0
2017-May-22 01:00N 68°48' E 016°33'0 0.0
2017-May-22 00:30N 68°48' E 016°33'0 0.0
2017-May-22 00:00N 68°48' E 016°33'0 0.0
2017-May-21 23:30N 68°48' E 016°33'0 0.8
2017-May-21 23:00N 68°48' E 016°34'4 8.5
2017-May-21 22:30N 68°51' E 016°43'4 8.8
2017-May-21 22:00N 68°53' E 016°52'4 8.3
2017-May-21 21:30N 68°56' E 017°01'4 8.3
2017-May-21 21:00N 68°59' E 017°10'4 8.1
2017-May-21 20:30N 69°02' E 017°18'4 8.2
2017-May-21 20:00N 69°05' E 017°24'4 8.3
2017-May-21 19:30N 69°07' E 017°35'4 8.3
2017-May-21 19:00N 69°09' E 017°45'4 8.4
2017-May-21 18:30N 69°10' E 017°56'3 6.2
2017-May-21 18:00N 69°13' E 017°58'4 8.2
2017-May-21 17:30N 69°17' E 017°58'4 7.8
2017-May-21 16:59N 69°21' E 018°04'4 7.9
2017-May-21 16:30N 69°24' E 018°07'4 8.0
2017-May-21 15:59N 69°28' E 018°09'4 8.0
2017-May-21 15:30N 69°30' E 018°19'4 7.8
2017-May-21 14:59N 69°32' E 018°30'4 7.8
2017-May-21 14:30N 69°33' E 018°40'8 8.1
2017-May-21 13:29N 69°38' E 018°57'4 7.8
2017-May-21 13:00N 69°42' E 019°02'4 7.9
2017-May-21 12:30N 69°45' E 019°08'4 7.8
2017-May-21 12:00N 69°47' E 019°18'4 8.0
2017-May-21 11:30N 69°48' E 019°29'4 7.7
2017-May-21 11:00N 69°49' E 019°40'3 6.6
2017-May-21 10:29N 69°46' E 019°45'5 9.1
2017-May-21 10:00N 69°42' E 019°45'5 9.0
2017-May-21 09:30N 69°37' E 019°44'1 1.7
2017-May-21 09:00N 69°37' E 019°44'0 0.0
2017-May-21 08:30N 69°37' E 019°44'0 0.0
2017-May-21 08:00N 69°37' E 019°44'0 0.0
2017-May-21 07:30N 69°37' E 019°44'0 0.0
2017-May-21 07:00N 69°37' E 019°44'0 0.0
2017-May-21 06:30N 69°37' E 019°44'1 1.0
2017-May-21 06:00N 69°37' E 019°45'0 0.2
2017-May-21 05:30N 69°37' E 019°45'0 0.7
2017-May-21 05:00N 69°37' E 019°46'0 0.7
2017-May-21 04:29N 69°37' E 019°45'0 0.1
2017-May-21 04:00N 69°37' E 019°45'1 1.3
2017-May-21 03:30N 69°37' E 019°47'0 0.4
2017-May-21 03:00N 69°38' E 019°47'1 1.3
2017-May-21 02:29N 69°38' E 019°45'4 8.7
2017-May-21 02:00N 69°42' E 019°45'4 8.2
2017-May-21 01:30N 69°46' E 019°49'4 8.4
2017-May-21 00:59N 69°50' E 019°55'4 8.4
2017-May-21 00:30N 69°53' E 020°01'4 8.3
2017-May-21 00:00N 69°57' E 020°07'4 7.9
2017-May-20 23:30N 69°59' E 020°16'4 8.4
2017-May-20 23:00N 69°56' E 020°24'5 9.3
2017-May-20 22:30N 69°51' E 020°26'5 9.4
2017-May-20 22:00N 69°46' E 020°26'4 8.8
2017-May-20 21:30N 69°42' E 020°26'4 8.5
2017-May-20 21:00N 69°38' E 020°27'3 0.3
2017-May-20 12:41N 69°35' E 020°31'1 7.0
2017-May-20 12:30N 69°36' E 020°28'4 7.0
2017-May-20 11:57N 69°40' E 020°26'3 7.2
2017-May-20 11:30N 69°43' E 020°26'4 7.2
2017-May-20 10:59N 69°47' E 020°26'3 7.0
2017-May-20 10:29N 69°51' E 020°25'3 7.0
2017-May-20 10:00N 69°54' E 020°24'3 6.7
2017-May-20 09:30N 69°57' E 020°21'3 5.9
2017-May-20 09:00N 69°59' E 020°14'3 7.0
2017-May-20 08:30N 69°57' E 020°06'4 7.2
2017-May-20 08:00N 69°54' E 019°57'4 7.5
2017-May-20 07:30N 69°52' E 019°48'4 7.7
2017-May-20 07:00N 69°50' E 019°39'4 8.0
2017-May-20 06:30N 69°49' E 019°28'4 7.9
2017-May-20 06:00N 69°47' E 019°17'4 7.8
2017-May-20 05:30N 69°45' E 019°08'4 8.0
2017-May-20 05:00N 69°42' E 019°02'4 8.5
2017-May-20 04:30N 69°38' E 018°56'4 8.2
2017-May-20 04:00N 69°34' E 018°50'5 9.3
2017-May-20 03:30N 69°33' E 018°38'4 8.1
2017-May-20 03:00N 69°31' E 018°27'4 8.2
2017-May-20 02:30N 69°30' E 018°16'4 7.8
2017-May-20 02:00N 69°27' E 018°07'4 7.9
2017-May-20 01:30N 69°23' E 018°06'4 7.2
2017-May-20 01:00N 69°20' E 018°03'4 7.3
2017-May-20 00:29N 69°17' E 017°58'4 7.6
2017-May-20 00:00N 69°13' E 017°59'3 5.9
2017-May-19 23:30N 69°10' E 017°56'4 7.9
2017-May-19 23:00N 69°09' E 017°46'4 7.9
2017-May-19 22:30N 69°07' E 017°36'4 7.8
2017-May-19 22:00N 69°05' E 017°26'4 8.0
2017-May-19 21:30N 69°02' E 017°19'4 7.9
2017-May-19 21:00N 68°59' E 017°12'4 8.2
2017-May-19 20:30N 68°56' E 017°06'4 8.1
2017-May-19 20:00N 68°53' E 016°59'4 8.1
2017-May-19 19:29N 68°49' E 016°53'4 8.6
2017-May-19 19:00N 68°45' E 016°47'4 8.8
2017-May-19 18:30N 68°42' E 016°41'5 9.2
2017-May-19 18:00N 68°38' E 016°35'5 9.1
2017-May-19 17:30N 68°33' E 016°30'4 8.8
2017-May-19 17:00N 68°33' E 016°18'4 8.3
2017-May-19 16:30N 68°31' E 016°09'4 8.5
2017-May-19 16:00N 68°27' E 016°04'4 7.5
2017-May-19 15:30N 68°23' E 015°60'4 8.5
2017-May-19 15:00N 68°20' E 015°52'8 7.8
2017-May-19 14:00N 68°19' E 015°31'3 5.6
2017-May-19 13:29N 68°21' E 015°26'0 0.1
2017-May-19 13:00N 68°21' E 015°26'0 0.0
2017-May-19 12:30N 68°21' E 015°26'0 0.0
2017-May-19 12:00N 68°21' E 015°26'0 0.0
2017-May-19 11:29N 68°21' E 015°26'3 6.3
2017-May-19 11:00N 68°21' E 015°17'4 8.8
2017-May-19 10:30N 68°18' E 015°08'5 9.1
2017-May-19 10:00N 68°15' E 014°59'5 9.1
2017-May-19 09:30N 68°12' E 014°50'5 9.1
2017-May-19 09:01N 68°08' E 014°42'5 9.3
2017-May-19 08:29N 68°07' E 014°29'5 9.6
2017-May-19 08:00N 68°06' E 014°17'5 9.3
2017-May-19 07:30N 68°05' E 014°04'5 9.4
2017-May-19 07:00N 68°05' E 013°52'5 9.5
2017-May-19 06:30N 68°04' E 013°40'4 8.2
2017-May-19 06:00N 68°07' E 013°34'0 0.8
2017-May-19 05:30N 68°07' E 013°33'0 0.0
2017-May-19 05:00N 68°07' E 013°33'0 0.0
2017-May-19 04:30N 68°07' E 013°33'0 0.0
2017-May-19 04:00N 68°07' E 013°33'0 0.0
2017-May-19 03:30N 68°07' E 013°33'0 0.0
2017-May-19 03:00N 68°07' E 013°33'0 0.0
2017-May-19 02:30N 68°07' E 013°33'0 0.0
2017-May-19 02:00N 68°07' E 013°33'0 0.0
2017-May-19 01:30N 68°07' E 013°33'0 0.0
2017-May-19 01:00N 68°07' E 013°33'0 0.0
2017-May-19 00:30N 68°07' E 013°33'0 0.0
2017-May-19 00:00N 68°07' E 013°33'0 0.0
2017-May-18 23:30N 68°07' E 013°33'1 2.5
2017-May-18 23:00N 68°07' E 013°36'3 6.6
2017-May-18 22:31N 68°04' E 013°41'5 9.2
2017-May-18 22:00N 68°06' E 013°52'5 9.4
2017-May-18 21:30N 68°09' E 014°03'5 8.9
2017-May-18 21:00N 68°12' E 014°10'4 8.8
2017-May-18 20:30N 68°16' E 014°15'4 8.4
2017-May-18 20:00N 68°20' E 014°17'4 8.5
2017-May-18 19:30N 68°24' E 014°22'4 8.9
2017-May-18 18:59N 68°27' E 014°32'4 8.9
2017-May-18 18:31N 68°28' E 014°43'4 8.8
2017-May-18 18:00N 68°29' E 014°54'5 9.2
2017-May-18 17:30N 68°32' E 015°05'5 9.0
2017-May-18 17:00N 68°35' E 015°13'4 9.0
2017-May-18 16:30N 68°38' E 015°24'4 7.4
2017-May-18 16:00N 68°38' E 015°34'0 0.0
2017-May-18 15:30N 68°38' E 015°34'0 0.0
2017-May-18 15:00N 68°38' E 015°34'0 0.0
2017-May-18 14:30N 68°38' E 015°34'0 0.0
2017-May-18 13:30N 68°38' E 015°34'0 0.0
2017-May-18 13:00N 68°38' E 015°34'0 0.0
2017-May-18 12:30N 68°38' E 015°34'0 0.0
2017-May-18 12:00N 68°38' E 015°34'0 0.0
2017-May-18 11:30N 68°38' E 015°34'0 0.0
2017-May-18 11:00N 68°38' E 015°34'0 0.0
2017-May-18 10:30N 68°38' E 015°34'0 0.0
2017-May-18 09:59N 68°38' E 015°34'0 0.0
2017-May-18 09:30N 68°38' E 015°34'0 0.0
2017-May-18 09:00N 68°38' E 015°34'0 0.0
2017-May-18 08:30N 68°38' E 015°34'0 0.0
2017-May-18 08:00N 68°38' E 015°34'0 0.0
2017-May-18 07:30N 68°38' E 015°34'0 0.0
2017-May-18 07:00N 68°38' E 015°34'0 0.0
2017-May-18 06:31N 68°38' E 015°34'0 0.0
2017-May-18 06:00N 68°38' E 015°34'0 0.0
2017-May-18 05:30N 68°38' E 015°34'0 0.0
2017-May-18 05:00N 68°38' E 015°34'0 0.0
2017-May-18 04:30N 68°38' E 015°34'0 0.0
2017-May-18 04:00N 68°38' E 015°34'0 0.0
2017-May-18 03:29N 68°38' E 015°34'0 0.0
2017-May-18 03:00N 68°38' E 015°34'0 0.0
2017-May-18 02:29N 68°38' E 015°34'0 0.0
2017-May-18 02:00N 68°38' E 015°34'0 0.0
2017-May-18 01:30N 68°38' E 015°34'0 0.0
2017-May-18 01:00N 68°38' E 015°34'0 0.0
2017-May-18 00:30N 68°38' E 015°34'0 0.0
2017-May-18 00:00N 68°38' E 015°34'0 0.0
2017-May-17 23:29N 68°38' E 015°34'0 0.0
2017-May-17 23:00N 68°38' E 015°34'0 0.0
2017-May-17 22:31N 68°38' E 015°34'0 0.0
2017-May-17 22:00N 68°38' E 015°34'0 0.0
2017-May-17 21:30N 68°38' E 015°34'0 0.0
2017-May-17 21:00N 68°38' E 015°34'0 0.0
2017-May-17 20:29N 68°38' E 015°34'0 0.0
2017-May-17 20:00N 68°38' E 015°34'0 0.0
2017-May-17 19:30N 68°38' E 015°34'0 0.0
2017-May-17 18:46N 68°38' E 015°34'0 0.0
2017-May-17 18:30N 68°38' E 015°34'0 0.0
2017-May-17 18:00N 68°38' E 015°34'0 0.0
2017-May-17 17:30N 68°38' E 015°34'0 0.0
2017-May-17 17:00N 68°38' E 015°34'0 0.0
2017-May-17 16:30N 68°38' E 015°34'0 0.0
2017-May-17 16:00N 68°38' E 015°34'0 0.0
2017-May-17 15:30N 68°38' E 015°34'0 0.0
2017-May-17 15:00N 68°38' E 015°34'0 0.0
2017-May-17 14:00N 68°38' E 015°34'0 0.0
2017-May-17 13:28N 68°38' E 015°34'0 0.0
2017-May-17 13:00N 68°38' E 015°34'0 0.0
2017-May-17 12:30N 68°38' E 015°34'0 0.0
2017-May-17 12:00N 68°38' E 015°34'0 0.0
2017-May-17 11:30N 68°38' E 015°34'0 0.0
2017-May-17 11:00N 68°38' E 015°34'0 0.0
2017-May-17 10:30N 68°38' E 015°34'0 0.0
2017-May-17 09:59N 68°38' E 015°34'0 0.0
2017-May-17 09:30N 68°38' E 015°34'0 0.0
2017-May-17 09:00N 68°38' E 015°34'0 0.0
2017-May-17 07:48N 68°38' E 015°34'0 0.0
2017-May-17 07:30N 68°38' E 015°34'0 0.0
2017-May-17 07:00N 68°38' E 015°34'0 0.0
2017-May-17 06:30N 68°38' E 015°34'0 0.0
2017-May-17 06:00N 68°38' E 015°34'0 0.0
2017-May-17 05:29N 68°38' E 015°34'0 0.0
2017-May-17 05:01N 68°38' E 015°34'0 0.0
2017-May-17 04:30N 68°38' E 015°34'0 0.0
2017-May-17 04:00N 68°38' E 015°34'0 0.0
2017-May-17 03:29N 68°38' E 015°34'0 0.0
2017-May-17 03:00N 68°38' E 015°34'0 0.0
2017-May-17 02:30N 68°38' E 015°34'0 0.0
2017-May-17 02:00N 68°38' E 015°34'0 0.0
2017-May-17 01:30N 68°38' E 015°34'0 0.0
2017-May-17 01:00N 68°38' E 015°34'0 0.0
2017-May-17 00:30N 68°38' E 015°34'0 0.0
2017-May-17 00:00N 68°38' E 015°34'0 0.0
2017-May-16 23:29N 68°38' E 015°34'0 0.0
2017-May-16 23:00N 68°38' E 015°34'0 0.0
2017-May-16 22:30N 68°38' E 015°34'0 0.0
2017-May-16 22:00N 68°38' E 015°34'0 0.0
2017-May-16 21:30N 68°38' E 015°34'0 0.5
2017-May-16 21:00N 68°38' E 015°34'3 6.9
2017-May-16 20:30N 68°38' E 015°24'3 5.4
2017-May-16 20:00N 68°36' E 015°20'0 0.0
2017-May-16 19:30N 68°36' E 015°20'0 0.0
2017-May-16 19:00N 68°36' E 015°20'0 0.0
2017-May-16 18:30N 68°36' E 015°20'0 0.0
2017-May-16 18:00N 68°36' E 015°20'0 0.0
2017-May-16 17:31N 68°36' E 015°20'0 0.0
2017-May-16 17:00N 68°36' E 015°20'0 0.0
2017-May-16 16:30N 68°36' E 015°20'0 0.0
2017-May-16 16:00N 68°36' E 015°20'0 0.0
2017-May-16 15:30N 68°36' E 015°20'0 0.0
2017-May-16 15:00N 68°36' E 015°20'0 0.0
2017-May-16 14:00N 68°36' E 015°20'0 0.0
2017-May-16 13:30N 68°36' E 015°20'0 0.0
2017-May-16 13:00N 68°36' E 015°20'0 0.0
2017-May-16 12:30N 68°36' E 015°20'0 0.0
2017-May-16 12:00N 68°36' E 015°20'0 0.0
2017-May-16 11:30N 68°36' E 015°20'0 0.0
2017-May-16 11:00N 68°36' E 015°20'0 0.0
2017-May-16 10:29N 68°36' E 015°20'0 0.0
2017-May-16 10:00N 68°36' E 015°20'0 0.0
2017-May-16 09:30N 68°36' E 015°20'0 0.9
2017-May-16 08:59N 68°36' E 015°19'0 0.0
2017-May-16 08:30N 68°36' E 015°19'0 0.2
2017-May-16 08:00N 68°36' E 015°19'1 1.0
2017-May-16 07:29N 68°36' E 015°17'3 5.7
2017-May-16 07:00N 68°34' E 015°10'5 9.3
2017-May-16 06:30N 68°31' E 015°01'5 9.2
2017-May-16 05:59N 68°29' E 014°50'4 9.2
2017-May-16 05:30N 68°28' E 014°39'5 9.3
2017-May-16 04:59N 68°25' E 014°27'5 9.6
2017-May-16 04:30N 68°22' E 014°18'510.5
2017-May-16 04:00N 68°17' E 014°17'510.4
2017-May-16 03:30N 68°12' E 014°10'4 8.9
2017-May-16 03:00N 68°09' E 014°03'5 9.4
2017-May-16 02:30N 68°06' E 013°53'5 9.3
2017-May-16 02:00N 68°04' E 013°42'4 7.0
2017-May-16 01:30N 68°07' E 013°36'1 2.4
2017-May-16 01:00N 68°07' E 013°33'0 0.0
2017-May-16 00:30N 68°07' E 013°33'0 0.0
2017-May-16 00:00N 68°07' E 013°33'0 0.0
2017-May-15 23:29N 68°07' E 013°33'0 0.0
2017-May-15 23:00N 68°07' E 013°33'0 0.0
2017-May-15 22:30N 68°07' E 013°33'0 0.0
2017-May-15 22:00N 68°07' E 013°33'0 0.0
2017-May-15 21:30N 68°07' E 013°33'0 0.0
2017-May-15 20:59N 68°07' E 013°33'0 0.0
2017-May-15 20:30N 68°07' E 013°33'0 0.0
2017-May-15 20:00N 68°07' E 013°33'1 1.3
2017-May-15 19:30N 68°08' E 013°34'2 4.8
2017-May-15 19:00N 68°05' E 013°36'4 7.2
2017-May-15 18:30N 68°04' E 013°45'4 9.2
2017-May-15 18:00N 68°07' E 013°56'4 9.0
2017-May-15 17:30N 68°09' E 014°06'4 8.5
2017-May-15 17:00N 68°13' E 014°10'4 7.7
2017-May-15 16:30N 68°17' E 014°16'4 7.4
2017-May-15 16:00N 68°20' E 014°17'4 8.3
2017-May-15 15:30N 68°24' E 014°22'4 8.8
2017-May-15 15:00N 68°27' E 014°31'9 9.0
2017-May-15 14:00N 68°29' E 014°54'4 8.7
2017-May-15 13:30N 68°32' E 015°04'4 8.8
2017-May-15 13:00N 68°35' E 015°12'4 8.7
2017-May-15 12:30N 68°37' E 015°23'4 8.3
2017-May-15 12:00N 68°38' E 015°34'0 0.4
2017-May-15 11:29N 68°38' E 015°34'0 0.0
2017-May-15 10:59N 68°38' E 015°34'0 0.0
2017-May-15 10:29N 68°38' E 015°34'0 0.0
2017-May-15 10:00N 68°38' E 015°34'0 0.0
2017-May-15 09:30N 68°38' E 015°34'0 0.0
2017-May-15 09:00N 68°38' E 015°34'0 0.0
2017-May-15 08:30N 68°38' E 015°34'0 0.0
2017-May-15 08:00N 68°38' E 015°34'0 0.0
2017-May-15 07:30N 68°38' E 015°34'0 0.0
2017-May-15 07:00N 68°38' E 015°34'0 0.0
2017-May-15 06:30N 68°38' E 015°34'0 0.0
2017-May-15 05:59N 68°38' E 015°34'0 0.0
2017-May-15 05:30N 68°38' E 015°34'0 0.0
2017-May-15 05:00N 68°38' E 015°34'0 0.0
2017-May-15 04:30N 68°38' E 015°34'0 0.0
2017-May-15 04:00N 68°38' E 015°34'0 0.0
2017-May-15 03:30N 68°38' E 015°34'0 0.0
2017-May-15 03:00N 68°38' E 015°34'0 0.0
2017-May-15 02:30N 68°38' E 015°34'0 0.0
2017-May-15 02:00N 68°38' E 015°34'0 0.0
2017-May-15 01:30N 68°38' E 015°34'0 0.0
2017-May-15 01:00N 68°38' E 015°34'0 0.0
2017-May-15 00:30N 68°38' E 015°34'0 0.0
2017-May-15 00:00N 68°38' E 015°34'0 0.0
2017-May-14 23:30N 68°38' E 015°34'0 0.0
2017-May-14 23:00N 68°38' E 015°34'0 0.0
2017-May-14 22:30N 68°38' E 015°34'0 0.0
2017-May-14 22:00N 68°38' E 015°34'0 0.0
2017-May-14 21:30N 68°38' E 015°34'0 0.0
2017-May-14 20:59N 68°38' E 015°34'0 0.0
2017-May-14 20:30N 68°38' E 015°34'3 5.4
2017-May-14 20:00N 68°39' E 015°27'5 9.9
2017-May-14 19:30N 68°44' E 015°25'5 9.3
2017-May-14 19:00N 68°48' E 015°26'5 9.4
2017-May-14 18:30N 68°53' E 015°32'5 9.7
2017-May-14 18:00N 68°57' E 015°36'5 9.1
2017-May-14 17:30N 68°59' E 015°48'5 9.1
2017-May-14 17:00N 68°57' E 016°00'5 9.8
2017-May-14 16:30N 68°54' E 016°11'4 7.1
2017-May-14 15:59N 68°51' E 016°17'0 0.0
2017-May-14 15:30N 68°51' E 016°17'0 0.0
2017-May-14 15:00N 68°51' E 016°17'0 0.0
2017-May-14 14:30N 68°51' E 016°17'0 0.0
2017-May-14 13:29N 68°51' E 016°17'0 0.0
2017-May-14 13:00N 68°51' E 016°17'0 0.0
2017-May-14 12:30N 68°51' E 016°17'0 0.0
2017-May-14 12:00N 68°51' E 016°17'4 7.0
2017-May-14 11:30N 68°55' E 016°14'3 6.7
2017-May-14 11:00N 68°53' E 016°23'4 8.8
2017-May-14 10:30N 68°51' E 016°33'3 6.3
2017-May-14 10:00N 68°48' E 016°33'0 0.2
2017-May-14 09:30N 68°48' E 016°33'0 0.0
2017-May-14 09:00N 68°48' E 016°33'1 1.0
2017-May-14 08:30N 68°48' E 016°34'4 8.2
2017-May-14 08:00N 68°45' E 016°42'4 8.6
2017-May-14 07:30N 68°41' E 016°39'4 8.5
2017-May-14 07:00N 68°37' E 016°34'4 7.8
2017-May-14 06:30N 68°33' E 016°29'4 7.5
2017-May-14 06:00N 68°33' E 016°19'4 7.7
2017-May-14 05:30N 68°31' E 016°11'4 8.4
2017-May-14 05:00N 68°27' E 016°05'4 8.5
2017-May-14 04:30N 68°24' E 016°01'4 8.0
2017-May-14 03:59N 68°21' E 015°53'4 7.8
2017-May-14 03:30N 68°19' E 015°45'4 7.3
2017-May-14 03:00N 68°18' E 015°35'4 7.5
2017-May-14 02:30N 68°20' E 015°26'0 0.3
2017-May-14 02:00N 68°20' E 015°26'0 0.0
2017-May-14 01:30N 68°20' E 015°26'0 0.0
2017-May-14 01:00N 68°20' E 015°26'0 0.0
2017-May-14 00:30N 68°20' E 015°26'0 0.0
2017-May-14 00:00N 68°20' E 015°26'0 0.0
2017-May-13 23:30N 68°20' E 015°26'0 0.0
2017-May-13 23:00N 68°20' E 015°26'0 0.0
2017-May-13 22:30N 68°20' E 015°26'0 0.3
2017-May-13 22:00N 68°20' E 015°26'4 8.9
2017-May-13 21:30N 68°18' E 015°36'5 9.6
2017-May-13 21:00N 68°20' E 015°49'5 9.7
2017-May-13 20:30N 68°23' E 015°59'5 9.6
2017-May-13 20:00N 68°27' E 016°04'5 9.8
2017-May-13 19:30N 68°31' E 016°11'5 9.7
2017-May-13 19:00N 68°34' E 016°23'  
Track history (hours):
 
Tides and Currents Weather Stations Pressure Air Temp Water Temp Dewpoint Dewpoint Depression Visibility Wind Speed Wind Dir Waves Ship Positions

Trine Charlotte

Last reported at 2017-May-23 18:31 UTC. Time now 2017-May-23 18:56 UTC.
Position N 68°06' E 013°51'.

Length 66 m; draft 4.4 m.

Type: Wing in ground effect craft. MMSI: 257233000.

Date/timePositionNaut miles runAvg speedWind from/ knotsBaromVisibWave heightAir tempDewpointWater temp
2017-May-23 18:31N 68°06' E 013°51'5 9.4
2017-May-23 17:59N 68°04' E 013°39'4 7.8
2017-May-23 17:30N 68°07' E 013°35'1 1.2
2017-May-23 17:00N 68°07' E 013°33'0 0.0
2017-May-23 16:30N 68°07' E 013°33'0 0.0
2017-May-23 16:00N 68°07' E 013°33'0 0.0
2017-May-23 15:29N 68°07' E 013°33'0 0.0
2017-May-23 15:00N 68°07' E 013°33'0 0.0
2017-May-23 14:31N 68°07' E 013°33'0 0.0
2017-May-23 13:30N 68°07' E 013°33'0 0.0
2017-May-23 13:00N 68°07' E 013°33'0 0.0
2017-May-23 12:30N 68°07' E 013°33'0 0.0
2017-May-23 12:00N 68°07' E 013°33'0 0.0
2017-May-23 11:30N 68°07' E 013°33'0 0.0
2017-May-23 11:00N 68°07' E 013°33'0 0.0
2017-May-23 10:30N 68°07' E 013°33'0 0.0
2017-May-23 10:00N 68°07' E 013°33'0 0.0
2017-May-23 09:30N 68°07' E 013°33'0 0.0
2017-May-23 09:00N 68°07' E 013°33'0 0.0
2017-May-23 08:30N 68°07' E 013°33'0 0.0
2017-May-23 08:00N 68°07' E 013°33'0 0.0
2017-May-23 07:30N 68°07' E 013°33'0 0.0
2017-May-23 07:00N 68°07' E 013°33'0 0.0
2017-May-23 06:30N 68°07' E 013°33'0 0.0
2017-May-23 06:00N 68°07' E 013°33'0 0.0
2017-May-23 05:30N 68°07' E 013°33'0 0.0
2017-May-23 04:59N 68°07' E 013°33'0 0.0
2017-May-23 04:30N 68°07' E 013°33'0 0.0
2017-May-23 04:00N 68°07' E 013°33'1 2.4
2017-May-23 03:30N 68°07' E 013°36'3 6.4
2017-May-23 03:00N 68°04' E 013°40'4 8.5
2017-May-23 02:30N 68°05' E 013°50'4 8.7
2017-May-23 02:00N 68°08' E 013°60'4 8.7
2017-May-23 01:30N 68°10' E 014°09'4 8.5
2017-May-23 01:00N 68°14' E 014°12'4 8.0
2017-May-23 00:30N 68°18' E 014°17'4 7.7
2017-May-23 00:00N 68°22' E 014°18'4 8.2
2017-May-22 23:30N 68°25' E 014°25'4 8.0
2017-May-22 23:00N 68°27' E 014°34'4 8.3
2017-May-22 22:30N 68°28' E 014°45'4 8.3
2017-May-22 22:00N 68°30' E 014°55'4 8.7
2017-May-22 21:29N 68°32' E 015°05'4 8.6
2017-May-22 21:00N 68°35' E 015°13'4 8.1
2017-May-22 20:30N 68°37' E 015°23'4 8.0
2017-May-22 20:00N 68°38' E 015°34'0 0.5
2017-May-22 19:30N 68°38' E 015°34'0 0.0
2017-May-22 19:00N 68°38' E 015°34'0 0.0
2017-May-22 18:30N 68°38' E 015°34'0 0.0
2017-May-22 18:00N 68°38' E 015°34'0 0.0
2017-May-22 17:30N 68°38' E 015°34'0 0.0
2017-May-22 17:00N 68°38' E 015°34'0 0.0
2017-May-22 16:30N 68°38' E 015°34'0 0.0
2017-May-22 15:59N 68°38' E 015°34'0 0.0
2017-May-22 15:30N 68°38' E 015°34'0 0.0
2017-May-22 15:00N 68°38' E 015°34'0 0.0
2017-May-22 14:00N 68°38' E 015°34'0 0.0
2017-May-22 13:30N 68°38' E 015°34'0 0.0
2017-May-22 13:00N 68°38' E 015°34'0 0.0
2017-May-22 12:30N 68°38' E 015°34'0 0.0
2017-May-22 12:00N 68°38' E 015°34'0 0.0
2017-May-22 11:30N 68°38' E 015°34'0 0.0
2017-May-22 11:00N 68°38' E 015°34'0 0.0
2017-May-22 10:30N 68°38' E 015°34'3 6.0
2017-May-22 10:00N 68°39' E 015°27'3 5.5
2017-May-22 09:30N 68°42' E 015°25'0 0.0
2017-May-22 09:00N 68°42' E 015°25'0 0.0
2017-May-22 08:30N 68°42' E 015°25'3 6.6
2017-May-22 08:00N 68°45' E 015°26'4 8.6
2017-May-22 07:30N 68°49' E 015°27'4 8.5
2017-May-22 07:00N 68°53' E 015°33'4 8.3
2017-May-22 06:30N 68°57' E 015°37'4 7.5
2017-May-22 06:00N 68°59' E 015°46'4 8.7
2017-May-22 05:30N 68°58' E 015°58'5 9.2
2017-May-22 05:00N 68°57' E 016°11'4 9.0
2017-May-22 04:30N 68°55' E 016°21'5 9.4
2017-May-22 04:00N 68°51' E 016°31'3 6.8
2017-May-22 03:29N 68°48' E 016°34'1 1.4
2017-May-22 03:00N 68°48' E 016°33'0 0.0
2017-May-22 02:30N 68°48' E 016°33'0 0.0
2017-May-22 02:00N 68°48' E 016°33'0 0.0
2017-May-22 01:30N 68°48' E 016°33'0 0.0
2017-May-22 01:00N 68°48' E 016°33'0 0.0
2017-May-22 00:30N 68°48' E 016°33'0 0.0
2017-May-22 00:00N 68°48' E 016°33'0 0.0
2017-May-21 23:30N 68°48' E 016°33'0 0.8
2017-May-21 23:00N 68°48' E 016°34'4 8.5
2017-May-21 22:30N 68°51' E 016°43'4 8.8
2017-May-21 22:00N 68°53' E 016°52'4 8.3
2017-May-21 21:30N 68°56' E 017°01'4 8.3
2017-May-21 21:00N 68°59' E 017°10'4 8.1
2017-May-21 20:30N 69°02' E 017°18'4 8.2
2017-May-21 20:00N 69°05' E 017°24'4 8.3
2017-May-21 19:30N 69°07' E 017°35'4 8.3
2017-May-21 19:00N 69°09' E 017°45'4 8.4
2017-May-21 18:30N 69°10' E 017°56'3 6.2
2017-May-21 18:00N 69°13' E 017°58'4 8.2
2017-May-21 17:30N 69°17' E 017°58'4 7.8
2017-May-21 16:59N 69°21' E 018°04'4 7.9
2017-May-21 16:30N 69°24' E 018°07'4 8.0
2017-May-21 15:59N 69°28' E 018°09'4 8.0
2017-May-21 15:30N 69°30' E 018°19'4 7.8
2017-May-21 14:59N 69°32' E 018°30'4 7.8
2017-May-21 14:30N 69°33' E 018°40'8 8.1
2017-May-21 13:29N 69°38' E 018°57'4 7.8
2017-May-21 13:00N 69°42' E 019°02'4 7.9
2017-May-21 12:30N 69°45' E 019°08'4 7.8
2017-May-21 12:00N 69°47' E 019°18'4 8.0
2017-May-21 11:30N 69°48' E 019°29'4 7.7
2017-May-21 11:00N 69°49' E 019°40'3 6.6
2017-May-21 10:29N 69°46' E 019°45'5 9.1
2017-May-21 10:00N 69°42' E 019°45'5 9.0
2017-May-21 09:30N 69°37' E 019°44'1 1.7
2017-May-21 09:00N 69°37' E 019°44'0 0.0
2017-May-21 08:30N 69°37' E 019°44'0 0.0
2017-May-21 08:00N 69°37' E 019°44'0 0.0
2017-May-21 07:30N 69°37' E 019°44'0 0.0
2017-May-21 07:00N 69°37' E 019°44'0 0.0
2017-May-21 06:30N 69°37' E 019°44'1 1.0
2017-May-21 06:00N 69°37' E 019°45'0 0.2
2017-May-21 05:30N 69°37' E 019°45'0 0.7
2017-May-21 05:00N 69°37' E 019°46'0 0.7
2017-May-21 04:29N 69°37' E 019°45'0 0.1
2017-May-21 04:00N 69°37' E 019°45'1 1.3
2017-May-21 03:30N 69°37' E 019°47'0 0.4
2017-May-21 03:00N 69°38' E 019°47'1 1.3
2017-May-21 02:29N 69°38' E 019°45'4 8.7
2017-May-21 02:00N 69°42' E 019°45'4 8.2
2017-May-21 01:30N 69°46' E 019°49'4 8.4
2017-May-21 00:59N 69°50' E 019°55'4 8.4
2017-May-21 00:30N 69°53' E 020°01'4 8.3
2017-May-21 00:00N 69°57' E 020°07'4 7.9
2017-May-20 23:30N 69°59' E 020°16'4 8.4
2017-May-20 23:00N 69°56' E 020°24'5 9.3
2017-May-20 22:30N 69°51' E 020°26'5 9.4
2017-May-20 22:00N 69°46' E 020°26'4 8.8
2017-May-20 21:30N 69°42' E 020°26'4 8.5
2017-May-20 21:00N 69°38' E 020°27'3 0.3
2017-May-20 12:41N 69°35' E 020°31'1 7.0
2017-May-20 12:30N 69°36' E 020°28'4 7.0
2017-May-20 11:57N 69°40' E 020°26'3 7.2
2017-May-20 11:30N 69°43' E 020°26'4 7.2
2017-May-20 10:59N 69°47' E 020°26'3 7.0
2017-May-20 10:29N 69°51' E 020°25'3 7.0
2017-May-20 10:00N 69°54' E 020°24'3 6.7
2017-May-20 09:30N 69°57' E 020°21'3 5.9
2017-May-20 09:00N 69°59' E 020°14'3 7.0
2017-May-20 08:30N 69°57' E 020°06'4 7.2
2017-May-20 08:00N 69°54' E 019°57'4 7.5
2017-May-20 07:30N 69°52' E 019°48'4 7.7
2017-May-20 07:00N 69°50' E 019°39'4 8.0
2017-May-20 06:30N 69°49' E 019°28'4 7.9
2017-May-20 06:00N 69°47' E 019°17'4 7.8
2017-May-20 05:30N 69°45' E 019°08'4 8.0
2017-May-20 05:00N 69°42' E 019°02'4 8.5
2017-May-20 04:30N 69°38' E 018°56'4 8.2
2017-May-20 04:00N 69°34' E 018°50'5 9.3
2017-May-20 03:30N 69°33' E 018°38'4 8.1
2017-May-20 03:00N 69°31' E 018°27'4 8.2
2017-May-20 02:30N 69°30' E 018°16'4 7.8
2017-May-20 02:00N 69°27' E 018°07'4 7.9
2017-May-20 01:30N 69°23' E 018°06'4 7.2
2017-May-20 01:00N 69°20' E 018°03'4 7.3
2017-May-20 00:29N 69°17' E 017°58'4 7.6
2017-May-20 00:00N 69°13' E 017°59'3 5.9
2017-May-19 23:30N 69°10' E 017°56'4 7.9
2017-May-19 23:00N 69°09' E 017°46'4 7.9
2017-May-19 22:30N 69°07' E 017°36'4 7.8
2017-May-19 22:00N 69°05' E 017°26'4 8.0
2017-May-19 21:30N 69°02' E 017°19'4 7.9
2017-May-19 21:00N 68°59' E 017°12'4 8.2
2017-May-19 20:30N 68°56' E 017°06'4 8.1
2017-May-19 20:00N 68°53' E 016°59'4 8.1
2017-May-19 19:29N 68°49' E 016°53'4 8.6
2017-May-19 19:00N 68°45' E 016°47'4 8.8
2017-May-19 18:30N 68°42' E 016°41'5 9.2
2017-May-19 18:00N 68°38' E 016°35'5 9.1
2017-May-19 17:30N 68°33' E 016°30'4 8.8
2017-May-19 17:00N 68°33' E 016°18'4 8.3
2017-May-19 16:30N 68°31' E 016°09'4 8.5
2017-May-19 16:00N 68°27' E 016°04'4 7.5
2017-May-19 15:30N 68°23' E 015°60'4 8.5
2017-May-19 15:00N 68°20' E 015°52'8 7.8
2017-May-19 14:00N 68°19' E 015°31'3 5.6
2017-May-19 13:29N 68°21' E 015°26'0 0.1
2017-May-19 13:00N 68°21' E 015°26'0 0.0
2017-May-19 12:30N 68°21' E 015°26'0 0.0
2017-May-19 12:00N 68°21' E 015°26'0 0.0
2017-May-19 11:29N 68°21' E 015°26'3 6.3
2017-May-19 11:00N 68°21' E 015°17'4 8.8
2017-May-19 10:30N 68°18' E 015°08'5 9.1
2017-May-19 10:00N 68°15' E 014°59'5 9.1
2017-May-19 09:30N 68°12' E 014°50'5 9.1
2017-May-19 09:01N 68°08' E 014°42'5 9.3
2017-May-19 08:29N 68°07' E 014°29'5 9.6
2017-May-19 08:00N 68°06' E 014°17'5 9.3
2017-May-19 07:30N 68°05' E 014°04'5 9.4
2017-May-19 07:00N 68°05' E 013°52'5 9.5
2017-May-19 06:30N 68°04' E 013°40'4 8.2
2017-May-19 06:00N 68°07' E 013°34'0 0.8
2017-May-19 05:30N 68°07' E 013°33'0 0.0
2017-May-19 05:00N 68°07' E 013°33'0 0.0
2017-May-19 04:30N 68°07' E 013°33'0 0.0
2017-May-19 04:00N 68°07' E 013°33'0 0.0
2017-May-19 03:30N 68°07' E 013°33'0 0.0
2017-May-19 03:00N 68°07' E 013°33'0 0.0
2017-May-19 02:30N 68°07' E 013°33'0 0.0
2017-May-19 02:00N 68°07' E 013°33'0 0.0
2017-May-19 01:30N 68°07' E 013°33'0 0.0
2017-May-19 01:00N 68°07' E 013°33'0 0.0
2017-May-19 00:30N 68°07' E 013°33'0 0.0
2017-May-19 00:00N 68°07' E 013°33'0 0.0
2017-May-18 23:30N 68°07' E 013°33'1 2.5
2017-May-18 23:00N 68°07' E 013°36'3 6.6
2017-May-18 22:31N 68°04' E 013°41'5 9.2
2017-May-18 22:00N 68°06' E 013°52'5 9.4
2017-May-18 21:30N 68°09' E 014°03'5 8.9
2017-May-18 21:00N 68°12' E 014°10'4 8.8
2017-May-18 20:30N 68°16' E 014°15'4 8.4
2017-May-18 20:00N 68°20' E 014°17'4 8.5
2017-May-18 19:30N 68°24' E 014°22'4 8.9
2017-May-18 18:59N 68°27' E 014°32'4 8.9
2017-May-18 18:31N 68°28' E 014°43'4 8.8
2017-May-18 18:00N 68°29' E 014°54'5 9.2
2017-May-18 17:30N 68°32' E 015°05'5 9.0
2017-May-18 17:00N 68°35' E 015°13'4 9.0
2017-May-18 16:30N 68°38' E 015°24'4 7.4
2017-May-18 16:00N 68°38' E 015°34'0 0.0
2017-May-18 15:30N 68°38' E 015°34'0 0.0
2017-May-18 15:00N 68°38' E 015°34'0 0.0
2017-May-18 14:30N 68°38' E 015°34'0 0.0
2017-May-18 13:30N 68°38' E 015°34'0 0.0
2017-May-18 13:00N 68°38' E 015°34'0 0.0
2017-May-18 12:30N 68°38' E 015°34'0 0.0
2017-May-18 12:00N 68°38' E 015°34'0 0.0
2017-May-18 11:30N 68°38' E 015°34'0 0.0
2017-May-18 11:00N 68°38' E 015°34'0 0.0
2017-May-18 10:30N 68°38' E 015°34'0 0.0
2017-May-18 09:59N 68°38' E 015°34'0 0.0
2017-May-18 09:30N 68°38' E 015°34'0 0.0
2017-May-18 09:00N 68°38' E 015°34'0 0.0
2017-May-18 08:30N 68°38' E 015°34'0 0.0
2017-May-18 08:00N 68°38' E 015°34'0 0.0
2017-May-18 07:30N 68°38' E 015°34'0 0.0
2017-May-18 07:00N 68°38' E 015°34'0 0.0
2017-May-18 06:31N 68°38' E 015°34'0 0.0
2017-May-18 06:00N 68°38' E 015°34'0 0.0
2017-May-18 05:30N 68°38' E 015°34'0 0.0
2017-May-18 05:00N 68°38' E 015°34'0 0.0
2017-May-18 04:30N 68°38' E 015°34'0 0.0
2017-May-18 04:00N 68°38' E 015°34'0 0.0
2017-May-18 03:29N 68°38' E 015°34'0 0.0
2017-May-18 03:00N 68°38' E 015°34'0 0.0
2017-May-18 02:29N 68°38' E 015°34'0 0.0
2017-May-18 02:00N 68°38' E 015°34'0 0.0
2017-May-18 01:30N 68°38' E 015°34'0 0.0
2017-May-18 01:00N 68°38' E 015°34'0 0.0
2017-May-18 00:30N 68°38' E 015°34'0 0.0
2017-May-18 00:00N 68°38' E 015°34'0 0.0
2017-May-17 23:29N 68°38' E 015°34'0 0.0
2017-May-17 23:00N 68°38' E 015°34'0 0.0
2017-May-17 22:31N 68°38' E 015°34'0 0.0
2017-May-17 22:00N 68°38' E 015°34'0 0.0
2017-May-17 21:30N 68°38' E 015°34'0 0.0
2017-May-17 21:00N 68°38' E 015°34'0 0.0
2017-May-17 20:29N 68°38' E 015°34'0 0.0
2017-May-17 20:00N 68°38' E 015°34'0 0.0
2017-May-17 19:30N 68°38' E 015°34'0 0.0
2017-May-17 18:46N 68°38' E 015°34'0 0.0
2017-May-17 18:30N 68°38' E 015°34'0 0.0
2017-May-17 18:00N 68°38' E 015°34'0 0.0
2017-May-17 17:30N 68°38' E 015°34'0 0.0
2017-May-17 17:00N 68°38' E 015°34'0 0.0
2017-May-17 16:30N 68°38' E 015°34'0 0.0
2017-May-17 16:00N 68°38' E 015°34'0 0.0
2017-May-17 15:30N 68°38' E 015°34'0 0.0
2017-May-17 15:00N 68°38' E 015°34'0 0.0
2017-May-17 14:00N 68°38' E 015°34'0 0.0
2017-May-17 13:28N 68°38' E 015°34'0 0.0
2017-May-17 13:00N 68°38' E 015°34'0 0.0
2017-May-17 12:30N 68°38' E 015°34'0 0.0
2017-May-17 12:00N 68°38' E 015°34'0 0.0
2017-May-17 11:30N 68°38' E 015°34'0 0.0
2017-May-17 11:00N 68°38' E 015°34'0 0.0
2017-May-17 10:30N 68°38' E 015°34'0 0.0
2017-May-17 09:59N 68°38' E 015°34'0 0.0
2017-May-17 09:30N 68°38' E 015°34'0 0.0
2017-May-17 09:00N 68°38' E 015°34'0 0.0
2017-May-17 07:48N 68°38' E 015°34'0 0.0
2017-May-17 07:30N 68°38' E 015°34'0 0.0
2017-May-17 07:00N 68°38' E 015°34'0 0.0
2017-May-17 06:30N 68°38' E 015°34'0 0.0
2017-May-17 06:00N 68°38' E 015°34'0 0.0
2017-May-17 05:29N 68°38' E 015°34'0 0.0
2017-May-17 05:01N 68°38' E 015°34'0 0.0
2017-May-17 04:30N 68°38' E 015°34'0 0.0
2017-May-17 04:00N 68°38' E 015°34'0 0.0
2017-May-17 03:29N 68°38' E 015°34'0 0.0
2017-May-17 03:00N 68°38' E 015°34'0 0.0
2017-May-17 02:30N 68°38' E 015°34'0 0.0
2017-May-17 02:00N 68°38' E 015°34'0 0.0
2017-May-17 01:30N 68°38' E 015°34'0 0.0
2017-May-17 01:00N 68°38' E 015°34'0 0.0
2017-May-17 00:30N 68°38' E 015°34'0 0.0
2017-May-17 00:00N 68°38' E 015°34'0 0.0
2017-May-16 23:29N 68°38' E 015°34'0 0.0
2017-May-16 23:00N 68°38' E 015°34'0 0.0
2017-May-16 22:30N 68°38' E 015°34'0 0.0
2017-May-16 22:00N 68°38' E 015°34'0 0.0
2017-May-16 21:30N 68°38' E 015°34'0 0.5
2017-May-16 21:00N 68°38' E 015°34'3 6.9
2017-May-16 20:30N 68°38' E 015°24'3 5.4
2017-May-16 20:00N 68°36' E 015°20'0 0.0
2017-May-16 19:30N 68°36' E 015°20'0 0.0
2017-May-16 19:00N 68°36' E 015°20'0 0.0
2017-May-16 18:30N 68°36' E 015°20'0 0.0
2017-May-16 18:00N 68°36' E 015°20'0 0.0
2017-May-16 17:31N 68°36' E 015°20'0 0.0
2017-May-16 17:00N 68°36' E 015°20'0 0.0
2017-May-16 16:30N 68°36' E 015°20'0 0.0
2017-May-16 16:00N 68°36' E 015°20'0 0.0
2017-May-16 15:30N 68°36' E 015°20'0 0.0
2017-May-16 15:00N 68°36' E 015°20'0 0.0
2017-May-16 14:00N 68°36' E 015°20'0 0.0
2017-May-16 13:30N 68°36' E 015°20'0 0.0
2017-May-16 13:00N 68°36' E 015°20'0 0.0
2017-May-16 12:30N 68°36' E 015°20'0 0.0
2017-May-16 12:00N 68°36' E 015°20'0 0.0
2017-May-16 11:30N 68°36' E 015°20'0 0.0
2017-May-16 11:00N 68°36' E 015°20'0 0.0
2017-May-16 10:29N 68°36' E 015°20'0 0.0
2017-May-16 10:00N 68°36' E 015°20'0 0.0
2017-May-16 09:30N 68°36' E 015°20'0 0.9
2017-May-16 08:59N 68°36' E 015°19'0 0.0
2017-May-16 08:30N 68°36' E 015°19'0 0.2
2017-May-16 08:00N 68°36' E 015°19'1 1.0
2017-May-16 07:29N 68°36' E 015°17'3 5.7
2017-May-16 07:00N 68°34' E 015°10'5 9.3
2017-May-16 06:30N 68°31' E 015°01'5 9.2
2017-May-16 05:59N 68°29' E 014°50'4 9.2
2017-May-16 05:30N 68°28' E 014°39'5 9.3
2017-May-16 04:59N 68°25' E 014°27'5 9.6
2017-May-16 04:30N 68°22' E 014°18'510.5
2017-May-16 04:00N 68°17' E 014°17'510.4
2017-May-16 03:30N 68°12' E 014°10'4 8.9
2017-May-16 03:00N 68°09' E 014°03'5 9.4
2017-May-16 02:30N 68°06' E 013°53'5 9.3
2017-May-16 02:00N 68°04' E 013°42'4 7.0
2017-May-16 01:30N 68°07' E 013°36'1 2.4
2017-May-16 01:00N 68°07' E 013°33'0 0.0
2017-May-16 00:30N 68°07' E 013°33'0 0.0
2017-May-16 00:00N 68°07' E 013°33'0 0.0
2017-May-15 23:29N 68°07' E 013°33'0 0.0
2017-May-15 23:00N 68°07' E 013°33'0 0.0
2017-May-15 22:30N 68°07' E 013°33'0 0.0
2017-May-15 22:00N 68°07' E 013°33'0 0.0
2017-May-15 21:30N 68°07' E 013°33'0 0.0
2017-May-15 20:59N 68°07' E 013°33'0 0.0
2017-May-15 20:30N 68°07' E 013°33'0 0.0
2017-May-15 20:00N 68°07' E 013°33'1 1.3
2017-May-15 19:30N 68°08' E 013°34'2 4.8
2017-May-15 19:00N 68°05' E 013°36'4 7.2
2017-May-15 18:30N 68°04' E 013°45'4 9.2
2017-May-15 18:00N 68°07' E 013°56'4 9.0
2017-May-15 17:30N 68°09' E 014°06'4 8.5
2017-May-15 17:00N 68°13' E 014°10'4 7.7
2017-May-15 16:30N 68°17' E 014°16'4 7.4
2017-May-15 16:00N 68°20' E 014°17'4 8.3
2017-May-15 15:30N 68°24' E 014°22'4 8.8
2017-May-15 15:00N 68°27' E 014°31'9 9.0
2017-May-15 14:00N 68°29' E 014°54'4 8.7
2017-May-15 13:30N 68°32' E 015°04'4 8.8
2017-May-15 13:00N 68°35' E 015°12'4 8.7
2017-May-15 12:30N 68°37' E 015°23'4 8.3
2017-May-15 12:00N 68°38' E 015°34'0 0.4
2017-May-15 11:29N 68°38' E 015°34'0 0.0
2017-May-15 10:59N 68°38' E 015°34'0 0.0
2017-May-15 10:29N 68°38' E 015°34'0 0.0
2017-May-15 10:00N 68°38' E 015°34'0 0.0
2017-May-15 09:30N 68°38' E 015°34'0 0.0
2017-May-15 09:00N 68°38' E 015°34'0 0.0
2017-May-15 08:30N 68°38' E 015°34'0 0.0
2017-May-15 08:00N 68°38' E 015°34'0 0.0
2017-May-15 07:30N 68°38' E 015°34'0 0.0
2017-May-15 07:00N 68°38' E 015°34'0 0.0
2017-May-15 06:30N 68°38' E 015°34'0 0.0
2017-May-15 05:59N 68°38' E 015°34'0 0.0
2017-May-15 05:30N 68°38' E 015°34'0 0.0
2017-May-15 05:00N 68°38' E 015°34'0 0.0
2017-May-15 04:30N 68°38' E 015°34'0 0.0
2017-May-15 04:00N 68°38' E 015°34'0 0.0
2017-May-15 03:30N 68°38' E 015°34'0 0.0
2017-May-15 03:00N 68°38' E 015°34'0 0.0
2017-May-15 02:30N 68°38' E 015°34'0 0.0
2017-May-15 02:00N 68°38' E 015°34'0 0.0
2017-May-15 01:30N 68°38' E 015°34'0 0.0
2017-May-15 01:00N 68°38' E 015°34'0 0.0
2017-May-15 00:30N 68°38' E 015°34'0 0.0
2017-May-15 00:00N 68°38' E 015°34'0 0.0
2017-May-14 23:30N 68°38' E 015°34'0 0.0
2017-May-14 23:00N 68°38' E 015°34'0 0.0
2017-May-14 22:30N 68°38' E 015°34'0 0.0
2017-May-14 22:00N 68°38' E 015°34'0 0.0
2017-May-14 21:30N 68°38' E 015°34'0 0.0
2017-May-14 20:59N 68°38' E 015°34'0 0.0
2017-May-14 20:30N 68°38' E 015°34'3 5.4
2017-May-14 20:00N 68°39' E 015°27'5 9.9
2017-May-14 19:30N 68°44' E 015°25'5 9.3
2017-May-14 19:00N 68°48' E 015°26'5 9.4
2017-May-14 18:30N 68°53' E 015°32'5 9.7
2017-May-14 18:00N 68°57' E 015°36'5 9.1
2017-May-14 17:30N 68°59' E 015°48'5 9.1
2017-May-14 17:00N 68°57' E 016°00'5 9.8
2017-May-14 16:30N 68°54' E 016°11'4 7.1
2017-May-14 15:59N 68°51' E 016°17'0 0.0
2017-May-14 15:30N 68°51' E 016°17'0 0.0
2017-May-14 15:00N 68°51' E 016°17'0 0.0
2017-May-14 14:30N 68°51' E 016°17'0 0.0
2017-May-14 13:29N 68°51' E 016°17'0 0.0
2017-May-14 13:00N 68°51' E 016°17'0 0.0
2017-May-14 12:30N 68°51' E 016°17'0 0.0
2017-May-14 12:00N 68°51' E 016°17'4 7.0
2017-May-14 11:30N 68°55' E 016°14'3 6.7
2017-May-14 11:00N 68°53' E 016°23'4 8.8
2017-May-14 10:30N 68°51' E 016°33'3 6.3
2017-May-14 10:00N 68°48' E 016°33'0 0.2
2017-May-14 09:30N 68°48' E 016°33'0 0.0
2017-May-14 09:00N 68°48' E 016°33'1 1.0
2017-May-14 08:30N 68°48' E 016°34'4 8.2
2017-May-14 08:00N 68°45' E 016°42'4 8.6
2017-May-14 07:30N 68°41' E 016°39'4 8.5
2017-May-14 07:00N 68°37' E 016°34'4 7.8
2017-May-14 06:30N 68°33' E 016°29'4 7.5
2017-May-14 06:00N 68°33' E 016°19'4 7.7
2017-May-14 05:30N 68°31' E 016°11'4 8.4
2017-May-14 05:00N 68°27' E 016°05'4 8.5
2017-May-14 04:30N 68°24' E 016°01'4 8.0
2017-May-14 03:59N 68°21' E 015°53'4 7.8
2017-May-14 03:30N 68°19' E 015°45'4 7.3
2017-May-14 03:00N 68°18' E 015°35'4 7.5
2017-May-14 02:30N 68°20' E 015°26'0 0.3
2017-May-14 02:00N 68°20' E 015°26'0 0.0
2017-May-14 01:30N 68°20' E 015°26'0 0.0
2017-May-14 01:00N 68°20' E 015°26'0 0.0
2017-May-14 00:30N 68°20' E 015°26'0 0.0
2017-May-14 00:00N 68°20' E 015°26'0 0.0
2017-May-13 23:30N 68°20' E 015°26'0 0.0
2017-May-13 23:00N 68°20' E 015°26'0 0.0
2017-May-13 22:30N 68°20' E 015°26'0 0.3
2017-May-13 22:00N 68°20' E 015°26'4 8.9
2017-May-13 21:30N 68°18' E 015°36'5 9.6
2017-May-13 21:00N 68°20' E 015°49'5 9.7
2017-May-13 20:30N 68°23' E 015°59'5 9.6
2017-May-13 20:00N 68°27' E 016°04'5 9.8
2017-May-13 19:30N 68°31' E 016°11'5 9.7
2017-May-13 19:00N 68°34' E 016°23'  

Dump ship's entire track history